createdAt,value
2017-12-06T00:02:14.504Z,13.47
2017-12-06T00:04:42.871Z,15.20
2017-12-06T00:07:11.227Z,7.10
2017-12-06T00:09:40.059Z,13.77
2017-12-06T00:15:24.975Z,8.50
2017-12-06T00:17:54.080Z,13.70
2017-12-06T00:20:23.196Z,17.40
2017-12-06T00:22:51.965Z,17.87
2017-12-06T00:25:20.297Z,13.37
2017-12-06T00:27:48.690Z,8.30
2017-12-06T00:30:17.340Z,10.73
2017-12-06T00:32:45.738Z,11.97
2017-12-06T00:35:14.130Z,15.97
2017-12-06T00:37:42.581Z,15.60
2017-12-06T00:40:10.938Z,14.10
2017-12-06T00:42:39.279Z,17.00
2017-12-06T00:45:08.682Z,13.27
2017-12-06T00:47:37.948Z,14.30
2017-12-06T00:50:06.325Z,15.10
2017-12-06T00:52:34.706Z,15.97
2017-12-06T00:55:03.575Z,16.33
2017-12-06T00:57:31.930Z,11.57
2017-12-06T01:00:00.495Z,13.97
2017-12-06T01:02:29.918Z,9.40
2017-12-06T01:04:58.249Z,13.87
2017-12-06T01:07:27.767Z,13.07
2017-12-06T01:09:56.893Z,13.73
2017-12-06T01:12:25.294Z,12.23
2017-12-06T01:14:53.683Z,13.00
2017-12-06T01:17:22.015Z,13.53
2017-12-06T01:19:51.183Z,12.60
2017-12-06T01:22:19.582Z,12.53
2017-12-06T01:24:48.896Z,10.73
2017-12-06T01:27:18.249Z,9.80
2017-12-06T01:29:46.795Z,10.23
2017-12-06T01:32:15.259Z,9.07
2017-12-06T01:34:44.436Z,10.97
2017-12-06T01:37:14.256Z,10.20
2017-12-06T01:39:43.459Z,9.90
2017-12-06T01:42:12.668Z,10.80
2017-12-06T01:44:42.962Z,11.60
2017-12-06T01:47:11.449Z,7.70
2017-12-06T01:49:39.954Z,9.63
2017-12-06T01:52:09.422Z,8.60
2017-12-06T01:54:37.901Z,10.70
2017-12-06T01:57:06.412Z,13.37
2017-12-06T01:59:36.019Z,12.03
2017-12-06T02:02:05.694Z,11.33
2017-12-06T02:04:34.419Z,11.57
2017-12-06T02:07:02.873Z,12.50
2017-12-06T02:09:31.238Z,13.00
2017-12-06T02:11:59.613Z,11.67
2017-12-06T02:14:29.013Z,11.33
2017-12-06T02:16:57.370Z,9.50
2017-12-06T02:19:25.836Z,13.47
2017-12-06T02:21:54.498Z,14.60
2017-12-06T02:24:23.671Z,9.10
2017-12-06T02:26:52.404Z,13.97
2017-12-06T02:29:21.810Z,12.10
2017-12-06T02:31:50.211Z,10.97
2017-12-06T02:34:18.588Z,8.77
2017-12-06T02:36:47.166Z,10.77
2017-12-06T02:39:15.537Z,13.60
2017-12-06T02:41:55.999Z,8.67
2017-12-06T02:44:36.259Z,5.87
2017-12-06T02:47:04.708Z,9.40
2017-12-06T02:49:33.094Z,12.70
2017-12-06T02:52:02.260Z,15.03
2017-12-06T02:54:30.825Z,14.90
2017-12-06T02:57:00.095Z,10.93
2017-12-06T02:59:28.471Z,14.40
2017-12-06T03:01:56.900Z,14.30
2017-12-06T03:04:25.287Z,14.30
2017-12-06T03:06:54.537Z,11.63
2017-12-06T03:09:23.141Z,11.40
2017-12-06T03:11:51.553Z,13.17
2017-12-06T03:14:20.040Z,3.90
2017-12-06T03:16:49.536Z,4.83
2017-12-06T03:19:17.918Z,5.10
2017-12-06T03:21:46.300Z,6.10
2017-12-06T03:24:15.732Z,3.23
2017-12-06T03:26:44.371Z,5.20
2017-12-06T03:29:12.719Z,3.97
2017-12-06T03:31:41.126Z,3.33
2017-12-06T03:34:09.446Z,5.27
2017-12-06T03:36:37.787Z,4.90
2017-12-06T03:39:06.376Z,4.13
2017-12-06T03:41:34.766Z,4.43
2017-12-06T03:44:03.909Z,7.70
2017-12-06T03:46:32.504Z,5.23
2017-12-06T03:49:00.864Z,3.40
2017-12-06T03:51:29.523Z,5.00
2017-12-06T03:53:59.227Z,4.83
2017-12-06T03:56:28.324Z,5.97
2017-12-06T03:58:56.751Z,6.87
2017-12-06T04:01:25.313Z,5.80
2017-12-06T04:03:53.665Z,7.37
2017-12-06T04:06:22.819Z,6.33
2017-12-06T04:08:51.675Z,5.50
2017-12-06T04:11:20.039Z,6.70
2017-12-06T04:13:48.398Z,5.50
2017-12-06T04:16:17.662Z,7.43
2017-12-06T04:18:46.064Z,6.90
2017-12-06T04:21:14.476Z,7.13
2017-12-06T04:23:43.094Z,4.10
2017-12-06T04:26:12.233Z,7.10
2017-12-06T04:28:41.512Z,3.50
2017-12-06T04:31:10.065Z,6.23
2017-12-06T04:33:38.387Z,6.80
2017-12-06T04:36:06.819Z,4.57
2017-12-06T04:38:35.521Z,6.73
2017-12-06T04:41:03.997Z,8.63
2017-12-06T04:43:32.396Z,7.00
2017-12-06T04:46:00.920Z,7.33
2017-12-06T04:48:29.324Z,3.40
2017-12-06T04:50:57.696Z,8.17
2017-12-06T04:53:26.247Z,6.23
2017-12-06T04:55:54.587Z,10.27
2017-12-06T04:58:22.943Z,8.27
2017-12-06T05:00:51.525Z,8.00
2017-12-06T05:03:19.927Z,4.57
2017-12-06T05:05:48.305Z,5.27
2017-12-06T05:08:16.670Z,11.60
2017-12-06T05:10:45.504Z,10.17
2017-12-06T05:13:14.590Z,9.10
2017-12-06T05:15:42.961Z,7.93
2017-12-06T05:18:11.306Z,9.20
2017-12-06T05:20:39.662Z,9.43
2017-12-06T05:23:08.348Z,8.20
2017-12-06T05:25:36.676Z,9.50
2017-12-06T05:28:05.011Z,5.07
2017-12-06T05:30:33.814Z,10.47
2017-12-06T05:33:02.160Z,7.87
2017-12-06T05:35:31.270Z,6.07
2017-12-06T05:37:59.795Z,10.63
2017-12-06T05:40:28.129Z,10.80
2017-12-06T05:42:56.467Z,10.17
2017-12-06T05:45:24.868Z,10.80
2017-12-06T05:47:53.485Z,3.70
2017-12-06T05:50:21.862Z,10.13
2017-12-06T05:52:50.378Z,10.40
2017-12-06T05:55:19.000Z,10.20
2017-12-06T05:57:47.310Z,9.93
2017-12-06T06:00:15.845Z,5.37
2017-12-06T06:02:45.009Z,8.17
2017-12-06T06:05:13.413Z,5.33
2017-12-06T06:07:42.729Z,7.30
2017-12-06T06:10:11.846Z,9.73
2017-12-06T06:12:40.648Z,6.37
2017-12-06T06:15:09.108Z,8.80
2017-12-06T06:17:37.478Z,9.93
2017-12-06T06:20:06.584Z,6.43
2017-12-06T06:22:35.420Z,8.03
2017-12-06T06:25:03.751Z,6.63
2017-12-06T06:27:32.079Z,7.67
2017-12-06T06:30:00.449Z,7.30
2017-12-06T06:32:28.892Z,10.30
2017-12-06T06:34:57.283Z,10.20
2017-12-06T06:37:25.830Z,9.07
2017-12-06T06:39:55.014Z,10.40
2017-12-06T06:42:23.464Z,4.43
2017-12-06T06:44:52.025Z,8.30
2017-12-06T06:47:20.465Z,9.60
2017-12-06T06:49:49.602Z,4.90
2017-12-06T06:52:18.219Z,9.27
2017-12-06T06:54:46.639Z,8.50
2017-12-06T06:57:15.074Z,9.27
2017-12-06T06:59:43.445Z,9.10
2017-12-06T07:02:11.771Z,12.13
2017-12-06T07:04:40.941Z,8.00
2017-12-06T07:07:09.452Z,6.73
2017-12-06T07:09:38.605Z,5.90
2017-12-06T07:12:06.981Z,10.30
2017-12-06T07:14:35.723Z,4.53
2017-12-06T07:17:04.137Z,11.60
2017-12-06T07:19:38.544Z,12.50
2017-12-06T07:22:06.947Z,6.80
2017-12-06T07:24:35.328Z,12.47
2017-12-06T07:27:03.917Z,9.17
2017-12-06T07:29:32.336Z,10.47
2017-12-06T07:32:00.775Z,7.80
2017-12-06T07:34:29.507Z,12.03
2017-12-06T07:36:58.701Z,5.37
2017-12-06T07:39:27.063Z,5.93
2017-12-06T07:41:55.533Z,9.43
2017-12-06T07:44:23.907Z,6.07
2017-12-06T07:46:52.289Z,10.40
2017-12-06T07:49:20.692Z,5.53
2017-12-06T07:51:49.808Z,4.17
2017-12-06T07:54:18.172Z,7.23
2017-12-06T07:56:46.683Z,8.03
2017-12-06T07:59:15.216Z,8.53
2017-12-06T08:01:44.385Z,10.50
2017-12-06T08:04:13.054Z,9.77
2017-12-06T08:06:42.323Z,6.17
2017-12-06T08:09:10.701Z,7.40
2017-12-06T08:11:39.110Z,10.10
2017-12-06T08:14:07.447Z,5.50
2017-12-06T08:16:37.162Z,5.47
2017-12-06T08:19:06.494Z,5.47
2017-12-06T08:21:34.898Z,11.20
2017-12-06T08:24:03.318Z,10.40
2017-12-06T08:26:32.551Z,8.80
2017-12-06T08:29:00.945Z,9.23
2017-12-06T08:31:29.274Z,5.87
2017-12-06T08:33:57.704Z,5.47
2017-12-06T08:36:26.298Z,11.90
2017-12-06T08:38:54.638Z,10.73
2017-12-06T08:41:23.330Z,6.07
2017-12-06T08:43:51.757Z,9.10
2017-12-06T08:46:20.126Z,10.10
2017-12-06T08:48:48.753Z,10.47
2017-12-06T08:51:17.137Z,7.60
2017-12-06T08:53:45.535Z,9.67
2017-12-06T08:56:14.093Z,9.17
2017-12-06T08:58:42.454Z,8.77
2017-12-06T09:01:11.760Z,7.13
2017-12-06T09:03:41.097Z,6.10
2017-12-06T09:06:09.476Z,3.40
2017-12-06T09:08:37.864Z,6.00
2017-12-06T09:11:06.406Z,9.77
2017-12-06T09:13:35.619Z,11.43
2017-12-06T09:16:04.059Z,7.80
2017-12-06T09:18:32.889Z,9.33
2017-12-06T09:21:01.287Z,11.90
2017-12-06T09:23:29.633Z,9.13
2017-12-06T09:25:58.403Z,4.27
2017-12-06T09:28:26.808Z,6.27
2017-12-06T09:30:55.283Z,6.70
2017-12-06T09:33:23.828Z,11.00
2017-12-06T09:35:52.258Z,6.97
2017-12-06T09:38:20.988Z,11.17
2017-12-06T09:40:49.453Z,9.37
2017-12-06T09:43:17.859Z,11.20
2017-12-06T09:45:46.268Z,11.97
2017-12-06T09:48:14.745Z,12.00
2017-12-06T09:50:43.929Z,6.60
2017-12-06T09:53:13.096Z,9.60
2017-12-06T09:55:41.717Z,8.30
2017-12-06T09:58:10.869Z,6.97
2017-12-06T10:00:39.393Z,8.63
2017-12-06T10:03:08.607Z,9.53
2017-12-06T10:05:36.999Z,10.83
2017-12-06T10:08:05.393Z,11.30
2017-12-06T10:10:34.068Z,10.47
2017-12-06T10:13:02.502Z,5.97
2017-12-06T10:15:30.980Z,8.47
2017-12-06T10:17:59.472Z,10.47
2017-12-06T10:20:28.857Z,8.70
2017-12-06T10:22:57.275Z,10.20
2017-12-06T10:25:25.951Z,9.17
2017-12-06T10:27:54.405Z,9.47
2017-12-06T10:30:23.646Z,6.60
2017-12-06T10:32:52.091Z,9.03
2017-12-06T10:35:21.284Z,3.57
2017-12-06T10:37:49.678Z,6.00
2017-12-06T10:40:18.557Z,7.63
2017-12-06T10:42:46.954Z,8.47
2017-12-06T10:45:16.260Z,10.77
2017-12-06T10:47:44.865Z,9.60
2017-12-06T10:50:14.340Z,11.37
2017-12-06T10:52:43.563Z,11.67
2017-12-06T10:55:12.217Z,11.53
2017-12-06T10:57:41.377Z,9.70
2017-12-06T11:00:09.818Z,7.97
2017-12-06T11:02:38.477Z,9.67
2017-12-06T11:05:07.861Z,11.10
2017-12-06T11:07:36.313Z,9.70
2017-12-06T11:10:04.953Z,6.50
2017-12-06T11:12:33.378Z,5.70
2017-12-06T11:15:01.776Z,8.70
2017-12-06T11:17:30.255Z,5.03
2017-12-06T11:19:58.683Z,8.77
2017-12-06T11:22:28.468Z,7.50
2017-12-06T11:24:57.015Z,8.37
2017-12-06T11:27:25.431Z,4.20
2017-12-06T11:29:53.844Z,3.80
2017-12-06T11:32:22.281Z,7.37
2017-12-06T11:34:51.467Z,7.90
2017-12-06T11:37:19.860Z,7.93
2017-12-06T11:39:48.469Z,4.83
2017-12-06T11:42:18.052Z,5.90
2017-12-06T11:44:46.454Z,6.53
2017-12-06T11:47:15.035Z,6.60
2017-12-06T11:49:44.211Z,6.77
2017-12-06T11:52:12.610Z,7.50
2017-12-06T11:54:42.158Z,7.40
2017-12-06T11:57:10.559Z,8.20
2017-12-06T11:59:38.998Z,8.57
2017-12-06T12:02:08.216Z,7.73
2017-12-06T12:04:36.643Z,8.60
2017-12-06T12:07:05.390Z,5.90
2017-12-06T12:09:35.701Z,8.30
2017-12-06T12:12:04.274Z,6.80
2017-12-06T12:14:32.702Z,8.90
2017-12-06T12:17:01.257Z,5.90
2017-12-06T12:19:29.699Z,7.83
2017-12-06T12:21:58.868Z,6.70
2017-12-06T12:24:27.977Z,6.07
2017-12-06T12:26:57.134Z,6.00
2017-12-06T12:29:25.532Z,2.97
2017-12-06T12:31:53.978Z,6.97
2017-12-06T12:34:22.389Z,6.70
2017-12-06T12:36:51.634Z,6.33
2017-12-06T12:39:20.265Z,3.27
2017-12-06T12:41:48.773Z,5.70
2017-12-06T12:44:18.333Z,5.77
2017-12-06T12:46:47.136Z,6.23
2017-12-06T12:49:16.539Z,6.37
2017-12-06T12:51:44.995Z,5.27
2017-12-06T12:54:13.489Z,5.57
2017-12-06T12:56:42.039Z,2.50
2017-12-06T12:59:11.240Z,3.90
2017-12-06T13:01:42.262Z,4.73
2017-12-06T13:04:12.378Z,4.10
2017-12-06T13:06:42.471Z,3.50
2017-12-06T13:09:10.908Z,3.50
2017-12-06T13:11:40.151Z,3.60
2017-12-06T13:14:08.739Z,2.87
2017-12-06T13:16:37.431Z,3.77
2017-12-06T13:19:06.065Z,4.00
2017-12-06T13:21:35.359Z,4.13
2017-12-06T13:24:04.551Z,3.40
2017-12-06T13:26:33.192Z,3.07
2017-12-06T13:29:01.730Z,3.77
2017-12-06T13:31:30.245Z,4.97
2017-12-06T13:33:58.715Z,3.63
2017-12-06T13:36:27.606Z,1.50
2017-12-06T13:38:56.059Z,3.50
2017-12-06T13:41:24.447Z,4.60
2017-12-06T13:43:53.502Z,4.27
2017-12-06T13:46:22.766Z,5.30
2017-12-06T13:48:51.269Z,4.67
2017-12-06T13:51:20.600Z,3.57
2017-12-06T13:53:49.057Z,4.93
2017-12-06T13:56:17.575Z,4.90
2017-12-06T13:58:47.001Z,2.13
2017-12-06T14:01:15.462Z,2.50
2017-12-06T14:03:43.924Z,3.93
2017-12-06T14:06:13.178Z,2.93
2017-12-06T14:08:41.707Z,4.80
2017-12-06T14:11:10.903Z,4.40
2017-12-06T14:13:40.156Z,4.00
2017-12-06T14:16:08.610Z,4.97
2017-12-06T14:18:37.067Z,4.60
2017-12-06T14:21:06.498Z,5.10
2017-12-06T14:23:34.965Z,3.93
2017-12-06T14:26:03.478Z,4.20
2017-12-06T14:28:32.607Z,4.10
2017-12-06T14:31:01.880Z,3.23
2017-12-06T14:33:30.361Z,4.30
2017-12-06T14:36:01.503Z,4.50
2017-12-06T14:38:30.008Z,3.90
2017-12-06T14:40:59.406Z,4.20
2017-12-06T14:43:29.012Z,4.60
2017-12-06T14:45:57.638Z,5.47
2017-12-06T14:48:26.120Z,5.37
2017-12-06T14:50:54.612Z,6.53
2017-12-06T14:53:23.029Z,6.60
2017-12-06T14:55:51.478Z,6.17
2017-12-06T14:58:20.066Z,6.90
2017-12-06T15:00:48.611Z,7.50
2017-12-06T15:03:18.429Z,6.83
2017-12-06T15:05:47.199Z,7.07
2017-12-06T15:08:16.429Z,7.30
2017-12-06T15:10:45.600Z,8.10
2017-12-06T15:13:14.872Z,9.83
2017-12-06T15:15:44.067Z,7.20
2017-12-06T15:18:12.521Z,7.73
2017-12-06T15:20:41.365Z,8.73
2017-12-06T15:23:09.893Z,7.73
2017-12-06T15:25:38.372Z,8.40
2017-12-06T15:28:06.996Z,9.17
2017-12-06T15:30:35.559Z,9.10
2017-12-06T15:33:04.019Z,9.27
2017-12-06T15:35:32.755Z,8.83
2017-12-06T15:38:02.158Z,6.30
2017-12-06T15:40:30.714Z,9.40
2017-12-06T15:42:59.235Z,5.50
2017-12-06T15:45:28.495Z,3.80
2017-12-06T15:47:58.103Z,7.27
2017-12-06T15:50:26.708Z,7.00
2017-12-06T15:52:55.149Z,7.03
2017-12-06T15:55:23.604Z,6.43
2017-12-06T15:57:52.280Z,7.50
2017-12-06T16:00:20.952Z,8.00
2017-12-06T16:02:50.176Z,6.40
2017-12-06T16:05:18.642Z,4.80
2017-12-06T16:07:47.862Z,4.60
2017-12-06T16:10:16.272Z,6.00
2017-12-06T16:12:45.005Z,7.90
2017-12-06T16:15:14.251Z,9.77
2017-12-06T16:17:42.741Z,8.33
2017-12-06T16:20:11.875Z,8.17
2017-12-06T16:22:40.365Z,7.80
2017-12-06T16:25:08.944Z,10.13
2017-12-06T16:27:39.994Z,8.27
2017-12-06T16:30:09.338Z,8.40
2017-12-06T16:32:40.888Z,5.70
2017-12-06T16:35:21.709Z,5.10
2017-12-06T16:37:55.178Z,8.47
2017-12-06T16:40:25.535Z,5.63
2017-12-06T16:42:54.592Z,10.97
2017-12-06T16:45:23.091Z,9.67
2017-12-06T16:47:51.629Z,10.63
2017-12-06T16:50:20.078Z,5.80
2017-12-06T16:52:49.081Z,11.90
2017-12-06T16:57:52.953Z,9.60
2017-12-06T17:00:21.774Z,11.63
2017-12-06T17:02:51.834Z,11.87
2017-12-06T17:05:20.329Z,8.27
2017-12-06T17:07:49.452Z,11.13
2017-12-06T17:10:18.163Z,10.87
2017-12-06T17:12:47.369Z,9.63
2017-12-06T17:15:15.860Z,9.33
2017-12-06T17:17:44.341Z,10.07
2017-12-06T17:20:12.884Z,10.73
2017-12-06T17:22:42.844Z,8.57
2017-12-06T17:25:11.388Z,11.17
2017-12-06T17:27:40.673Z,10.40
2017-12-06T17:30:21.184Z,9.30
2017-12-06T17:32:49.996Z,8.60
2017-12-06T17:35:18.495Z,10.80
2017-12-06T17:37:47.226Z,12.17
2017-12-06T17:40:15.727Z,11.80
2017-12-06T17:42:44.245Z,10.60
2017-12-06T17:45:13.034Z,13.37
2017-12-06T17:47:41.551Z,8.63
2017-12-06T17:50:22.111Z,9.30
2017-12-06T17:52:51.318Z,11.80
2017-12-06T17:55:20.556Z,8.90
2017-12-06T17:57:49.605Z,8.87
2017-12-06T18:00:18.878Z,12.27
2017-12-06T18:02:47.372Z,8.60
2017-12-06T18:05:16.378Z,11.60
2017-12-06T18:07:45.885Z,6.40
2017-12-06T18:10:15.126Z,12.17
2017-12-06T18:12:43.787Z,12.30
2017-12-06T18:15:12.282Z,9.63
2017-12-06T18:17:40.734Z,12.63
2017-12-06T18:20:10.049Z,8.73
2017-12-06T18:25:13.248Z,13.43
2017-12-06T18:27:41.738Z,10.27
2017-12-06T18:30:10.279Z,12.20
2017-12-06T18:32:38.937Z,10.77
2017-12-06T18:35:07.469Z,6.30
2017-12-06T18:37:35.969Z,11.67
2017-12-06T18:40:04.525Z,11.67
2017-12-06T18:42:34.042Z,7.50
2017-12-06T18:45:03.275Z,9.23
2017-12-06T18:47:32.015Z,12.10
2017-12-06T18:50:01.226Z,12.30
2017-12-06T18:52:29.653Z,11.27
2017-12-06T18:54:58.184Z,12.20
2017-12-06T18:57:27.549Z,11.33
2017-12-06T18:59:56.008Z,10.90
2017-12-06T19:02:24.635Z,8.90
2017-12-06T19:04:53.057Z,8.67
2017-12-06T19:07:21.576Z,12.73
2017-12-06T19:09:50.065Z,11.67
2017-12-06T19:12:18.475Z,13.53
2017-12-06T19:14:46.925Z,12.70
2017-12-06T19:17:16.932Z,15.67
2017-12-06T19:19:45.404Z,7.80
2017-12-06T19:22:13.862Z,10.30
2017-12-06T19:24:42.661Z,9.10
2017-12-06T19:27:11.101Z,11.53
2017-12-06T19:29:40.262Z,8.87
2017-12-06T19:32:08.937Z,10.80
2017-12-06T19:34:37.327Z,7.93
2017-12-06T19:37:05.842Z,7.30
2017-12-06T19:39:35.247Z,5.10
2017-12-06T19:42:04.452Z,11.87
2017-12-06T19:44:33.683Z,12.33
2017-12-06T19:47:02.153Z,12.47
2017-12-06T19:49:30.544Z,8.50
2017-12-06T19:51:58.983Z,6.77
2017-12-06T19:54:28.326Z,11.77
2017-12-06T19:56:56.955Z,15.23
2017-12-06T19:59:25.351Z,7.90
2017-12-06T20:01:54.844Z,11.73
2017-12-06T20:04:24.072Z,12.03
2017-12-06T20:06:52.470Z,12.80
2017-12-06T20:09:21.051Z,8.70
2017-12-06T20:11:49.489Z,13.50
2017-12-06T20:14:18.659Z,14.20
2017-12-06T20:16:47.118Z,7.90
2017-12-06T20:19:15.520Z,8.40
2017-12-06T20:21:44.185Z,4.57
2017-12-06T20:24:12.818Z,9.10
2017-12-06T20:26:42.008Z,11.97
2017-12-06T20:29:11.164Z,6.90
2017-12-06T20:31:39.937Z,12.50
2017-12-06T20:34:08.350Z,11.03
2017-12-06T20:36:36.761Z,5.50
2017-12-06T20:39:06.465Z,7.50
2017-12-06T20:41:35.678Z,11.00
2017-12-06T20:44:04.105Z,11.50
2017-12-06T20:46:32.564Z,10.40
2017-12-06T20:49:00.969Z,9.43
2017-12-06T20:51:29.421Z,10.50
2017-12-06T20:53:58.060Z,10.03
2017-12-06T20:56:26.447Z,8.27
2017-12-06T20:58:55.718Z,10.23
2017-12-06T21:01:24.507Z,11.63
2017-12-06T21:03:52.956Z,4.10
2017-12-06T21:06:21.375Z,7.73
2017-12-06T21:08:49.963Z,7.33
2017-12-06T21:11:18.382Z,10.30
2017-12-06T21:13:46.820Z,6.10
2017-12-06T21:16:15.314Z,10.40
2017-12-06T21:18:44.468Z,6.70
2017-12-06T21:21:13.713Z,9.50
2017-12-06T21:23:43.099Z,11.53
2017-12-06T21:26:11.509Z,6.60
2017-12-06T21:28:40.696Z,9.77
2017-12-06T21:31:09.946Z,12.97
2017-12-06T21:33:38.370Z,9.30
2017-12-06T21:36:07.591Z,5.07
2017-12-06T21:38:36.185Z,5.50
2017-12-06T21:41:04.740Z,6.20
2017-12-06T21:43:33.881Z,4.63
2017-12-06T21:46:02.318Z,6.47
2017-12-06T21:48:31.527Z,6.90
2017-12-06T21:51:00.684Z,5.03
2017-12-06T21:53:29.281Z,5.80
2017-12-06T21:55:57.711Z,4.40
2017-12-06T21:58:26.130Z,9.63
2017-12-06T22:00:54.666Z,10.33
2017-12-06T22:03:23.038Z,6.30
2017-12-06T22:05:51.438Z,5.00
2017-12-06T22:08:19.998Z,6.77
2017-12-06T22:10:48.402Z,4.43
2017-12-06T22:13:16.841Z,9.27
2017-12-06T22:15:46.331Z,9.77
2017-12-06T22:18:15.531Z,5.53
2017-12-06T22:20:44.693Z,8.03
2017-12-06T22:23:13.113Z,6.33
2017-12-06T22:25:42.560Z,6.30
2017-12-06T22:28:10.993Z,3.60
2017-12-06T22:30:40.498Z,7.60
2017-12-06T22:33:09.652Z,4.83
2017-12-06T22:35:38.050Z,5.63
2017-12-06T22:38:06.493Z,5.43
2017-12-06T22:40:34.897Z,8.27
2017-12-06T22:43:03.872Z,3.57
2017-12-06T22:45:32.283Z,3.53
2017-12-06T22:48:00.713Z,4.63
2017-12-06T22:50:29.133Z,6.00
2017-12-06T22:52:57.600Z,5.60
2017-12-06T22:55:25.998Z,5.60
2017-12-06T22:57:54.382Z,4.20
2017-12-06T23:00:22.820Z,8.87
2017-12-06T23:02:51.313Z,4.60
2017-12-06T23:05:19.720Z,5.93
2017-12-06T23:07:48.319Z,6.10
2017-12-06T23:10:16.736Z,5.50
2017-12-06T23:12:45.217Z,7.23
2017-12-06T23:15:13.921Z,2.03
2017-12-06T23:17:42.397Z,5.60
2017-12-06T23:20:10.788Z,7.83
2017-12-06T23:22:40.438Z,4.27
2017-12-06T23:25:09.631Z,6.20
2017-12-06T23:27:39.009Z,6.90
2017-12-06T23:30:07.466Z,6.70
2017-12-06T23:32:35.876Z,6.80
2017-12-06T23:35:04.323Z,6.37
2017-12-06T23:37:32.815Z,4.50
2017-12-06T23:40:01.254Z,6.70
2017-12-06T23:42:29.663Z,6.23
2017-12-06T23:44:58.486Z,4.63
2017-12-06T23:47:26.886Z,5.53
2017-12-06T23:49:56.051Z,6.00
2017-12-06T23:52:24.480Z,5.10
2017-12-06T23:54:52.862Z,2.47
2017-12-06T23:57:22.000Z,4.30
2017-12-06T23:59:50.499Z,3.13
